sensor_id;sensor_type;location;lat;lon;timestamp;P1;durP1;ratioP1;P2;durP2;ratioP2
75148;SDS011;63724;47.470;19.166;2023-05-07T00:02:12;13.00;;;10.77;;
75148;SDS011;63724;47.470;19.166;2023-05-07T00:05:15;14.23;;;10.50;;
75148;SDS011;63724;47.470;19.166;2023-05-07T00:08:18;14.48;;;10.45;;
75148;SDS011;63724;47.470;19.166;2023-05-07T00:11:20;15.18;;;11.23;;
75148;SDS011;63724;47.470;19.166;2023-05-07T00:14:23;13.70;;;10.45;;
75148;SDS011;63724;47.470;19.166;2023-05-07T00:17:25;14.10;;;11.00;;
75148;SDS011;63724;47.470;19.166;2023-05-07T00:20:28;13.60;;;10.70;;
75148;SDS011;63724;47.470;19.166;2023-05-07T00:23:30;15.27;;;11.52;;
75148;SDS011;63724;47.470;19.166;2023-05-07T00:26:32;15.75;;;11.13;;
75148;SDS011;63724;47.470;19.166;2023-05-07T00:29:35;13.82;;;11.38;;
75148;SDS011;63724;47.470;19.166;2023-05-07T00:32:38;15.57;;;11.43;;
75148;SDS011;63724;47.470;19.166;2023-05-07T00:35:41;16.27;;;11.50;;
75148;SDS011;63724;47.470;19.166;2023-05-07T00:38:44;14.02;;;10.73;;
75148;SDS011;63724;47.470;19.166;2023-05-07T00:41:46;16.25;;;10.75;;
75148;SDS011;63724;47.470;19.166;2023-05-07T00:44:49;14.70;;;10.80;;
75148;SDS011;63724;47.470;19.166;2023-05-07T00:47:53;17.23;;;10.07;;
75148;SDS011;63724;47.470;19.166;2023-05-07T00:50:57;15.20;;;10.67;;
75148;SDS011;63724;47.470;19.166;2023-05-07T00:54:00;12.32;;;10.00;;
75148;SDS011;63724;47.470;19.166;2023-05-07T00:57:03;15.88;;;11.45;;
75148;SDS011;63724;47.470;19.166;2023-05-07T01:00:07;16.67;;;11.38;;
75148;SDS011;63724;47.470;19.166;2023-05-07T01:03:15;15.50;;;11.65;;
75148;SDS011;63724;47.470;19.166;2023-05-07T01:06:18;15.23;;;11.37;;
75148;SDS011;63724;47.470;19.166;2023-05-07T01:09:21;16.08;;;10.77;;
75148;SDS011;63724;47.470;19.166;2023-05-07T01:12:25;16.92;;;10.85;;
75148;SDS011;63724;47.470;19.166;2023-05-07T01:15:27;15.30;;;10.75;;
75148;SDS011;63724;47.470;19.166;2023-05-07T01:18:30;14.98;;;11.32;;
75148;SDS011;63724;47.470;19.166;2023-05-07T01:21:33;16.63;;;11.47;;
75148;SDS011;63724;47.470;19.166;2023-05-07T01:24:40;17.48;;;11.43;;
75148;SDS011;63724;47.470;19.166;2023-05-07T01:27:43;17.63;;;11.70;;
75148;SDS011;63724;47.470;19.166;2023-05-07T01:30:46;17.20;;;12.32;;
75148;SDS011;63724;47.470;19.166;2023-05-07T01:33:54;16.00;;;12.07;;
75148;SDS011;63724;47.470;19.166;2023-05-07T01:36:58;18.47;;;12.83;;
75148;SDS011;63724;47.470;19.166;2023-05-07T01:40:01;17.33;;;12.18;;
75148;SDS011;63724;47.470;19.166;2023-05-07T01:43:04;17.77;;;10.82;;
75148;SDS011;63724;47.470;19.166;2023-05-07T01:46:08;13.90;;;11.73;;
75148;SDS011;63724;47.470;19.166;2023-05-07T01:49:12;16.92;;;11.95;;
75148;SDS011;63724;47.470;19.166;2023-05-07T01:52:14;16.27;;;11.90;;
75148;SDS011;63724;47.470;19.166;2023-05-07T01:55:17;16.90;;;12.48;;
75148;SDS011;63724;47.470;19.166;2023-05-07T01:58:20;16.23;;;11.55;;
75148;SDS011;63724;47.470;19.166;2023-05-07T02:01:22;14.63;;;10.57;;
75148;SDS011;63724;47.470;19.166;2023-05-07T02:04:25;15.00;;;10.82;;
75148;SDS011;63724;47.470;19.166;2023-05-07T02:07:28;13.80;;;11.00;;
75148;SDS011;63724;47.470;19.166;2023-05-07T02:10:30;17.73;;;11.32;;
75148;SDS011;63724;47.470;19.166;2023-05-07T02:13:33;17.30;;;11.38;;
75148;SDS011;63724;47.470;19.166;2023-05-07T02:16:36;19.40;;;11.43;;
75148;SDS011;63724;47.470;19.166;2023-05-07T02:19:39;18.05;;;12.13;;
75148;SDS011;63724;47.470;19.166;2023-05-07T02:22:41;15.43;;;11.43;;
75148;SDS011;63724;47.470;19.166;2023-05-07T02:25:44;15.73;;;11.35;;
75148;SDS011;63724;47.470;19.166;2023-05-07T02:28:47;18.73;;;12.00;;
75148;SDS011;63724;47.470;19.166;2023-05-07T02:31:49;15.43;;;11.07;;
75148;SDS011;63724;47.470;19.166;2023-05-07T02:34:55;17.98;;;11.23;;
75148;SDS011;63724;47.470;19.166;2023-05-07T02:37:57;13.93;;;11.50;;
75148;SDS011;63724;47.470;19.166;2023-05-07T02:41:00;15.32;;;11.55;;
75148;SDS011;63724;47.470;19.166;2023-05-07T02:44:03;15.98;;;11.40;;
75148;SDS011;63724;47.470;19.166;2023-05-07T02:47:06;19.77;;;11.27;;
75148;SDS011;63724;47.470;19.166;2023-05-07T02:50:11;14.93;;;11.85;;
75148;SDS011;63724;47.470;19.166;2023-05-07T02:53:14;18.17;;;11.70;;
75148;SDS011;63724;47.470;19.166;2023-05-07T02:56:17;18.67;;;11.23;;
75148;SDS011;63724;47.470;19.166;2023-05-07T02:59:19;16.38;;;11.55;;
75148;SDS011;63724;47.470;19.166;2023-05-07T03:02:23;19.42;;;10.90;;
75148;SDS011;63724;47.470;19.166;2023-05-07T03:05:26;15.90;;;11.63;;
75148;SDS011;63724;47.470;19.166;2023-05-07T03:08:28;15.37;;;11.00;;
75148;SDS011;63724;47.470;19.166;2023-05-07T03:11:31;17.35;;;11.25;;
75148;SDS011;63724;47.470;19.166;2023-05-07T03:14:33;18.23;;;11.95;;
75148;SDS011;63724;47.470;19.166;2023-05-07T03:17:35;18.15;;;11.18;;
75148;SDS011;63724;47.470;19.166;2023-05-07T03:20:38;16.45;;;12.20;;
75148;SDS011;63724;47.470;19.166;2023-05-07T03:23:40;18.17;;;12.37;;
75148;SDS011;63724;47.470;19.166;2023-05-07T03:26:42;19.00;;;12.88;;
75148;SDS011;63724;47.470;19.166;2023-05-07T03:29:45;17.25;;;12.40;;
75148;SDS011;63724;47.470;19.166;2023-05-07T03:32:47;24.50;;;13.65;;
75148;SDS011;63724;47.470;19.166;2023-05-07T03:35:50;19.52;;;12.70;;
75148;SDS011;63724;47.470;19.166;2023-05-07T03:38:57;18.23;;;13.33;;
75148;SDS011;63724;47.470;19.166;2023-05-07T03:42:05;18.23;;;12.27;;
75148;SDS011;63724;47.470;19.166;2023-05-07T03:45:08;16.65;;;12.23;;
75148;SDS011;63724;47.470;19.166;2023-05-07T03:48:12;16.80;;;12.20;;
75148;SDS011;63724;47.470;19.166;2023-05-07T03:51:15;19.63;;;12.90;;
75148;SDS011;63724;47.470;19.166;2023-05-07T03:54:17;16.80;;;12.03;;
75148;SDS011;63724;47.470;19.166;2023-05-07T03:57:21;19.13;;;12.68;;
75148;SDS011;63724;47.470;19.166;2023-05-07T04:00:23;17.95;;;13.25;;
75148;SDS011;63724;47.470;19.166;2023-05-07T04:03:26;19.63;;;13.60;;
75148;SDS011;63724;47.470;19.166;2023-05-07T04:06:31;20.05;;;13.70;;
75148;SDS011;63724;47.470;19.166;2023-05-07T04:09:34;16.40;;;12.20;;
75148;SDS011;63724;47.470;19.166;2023-05-07T04:12:36;21.20;;;13.93;;
75148;SDS011;63724;47.470;19.166;2023-05-07T04:15:41;20.17;;;13.90;;
75148;SDS011;63724;47.470;19.166;2023-05-07T04:18:45;21.13;;;14.10;;
75148;SDS011;63724;47.470;19.166;2023-05-07T04:21:48;19.92;;;13.85;;
75148;SDS011;63724;47.470;19.166;2023-05-07T04:24:50;18.10;;;12.63;;
75148;SDS011;63724;47.470;19.166;2023-05-07T04:27:53;18.83;;;13.38;;
75148;SDS011;63724;47.470;19.166;2023-05-07T04:31:01;23.15;;;14.65;;
75148;SDS011;63724;47.470;19.166;2023-05-07T04:34:05;18.25;;;13.95;;
75148;SDS011;63724;47.470;19.166;2023-05-07T04:37:08;20.27;;;13.30;;
75148;SDS011;63724;47.470;19.166;2023-05-07T04:40:11;21.43;;;14.47;;
75148;SDS011;63724;47.470;19.166;2023-05-07T04:43:14;22.45;;;14.45;;
75148;SDS011;63724;47.470;19.166;2023-05-07T04:46:22;20.85;;;14.18;;
75148;SDS011;63724;47.470;19.166;2023-05-07T04:49:28;18.00;;;14.13;;
75148;SDS011;63724;47.470;19.166;2023-05-07T04:52:31;20.38;;;13.70;;
75148;SDS011;63724;47.470;19.166;2023-05-07T04:55:34;15.80;;;11.90;;
75148;SDS011;63724;47.470;19.166;2023-05-07T04:58:38;16.90;;;13.02;;
75148;SDS011;63724;47.470;19.166;2023-05-07T05:01:40;17.75;;;13.23;;
75148;SDS011;63724;47.470;19.166;2023-05-07T05:04:42;16.17;;;12.88;;
75148;SDS011;63724;47.470;19.166;2023-05-07T05:07:45;17.48;;;12.85;;
75148;SDS011;63724;47.470;19.166;2023-05-07T05:10:47;17.70;;;12.33;;
75148;SDS011;63724;47.470;19.166;2023-05-07T05:13:52;20.40;;;13.85;;
75148;SDS011;63724;47.470;19.166;2023-05-07T05:16:55;18.52;;;13.30;;
75148;SDS011;63724;47.470;19.166;2023-05-07T05:19:58;15.75;;;10.93;;
75148;SDS011;63724;47.470;19.166;2023-05-07T05:23:00;16.90;;;11.77;;
75148;SDS011;63724;47.470;19.166;2023-05-07T05:26:04;15.67;;;11.80;;
75148;SDS011;63724;47.470;19.166;2023-05-07T05:29:08;14.38;;;10.95;;
75148;SDS011;63724;47.470;19.166;2023-05-07T05:32:13;16.40;;;11.50;;
75148;SDS011;63724;47.470;19.166;2023-05-07T05:35:16;14.80;;;10.93;;
75148;SDS011;63724;47.470;19.166;2023-05-07T05:38:19;15.75;;;10.65;;
75148;SDS011;63724;47.470;19.166;2023-05-07T05:41:22;13.60;;;10.17;;
75148;SDS011;63724;47.470;19.166;2023-05-07T05:44:25;13.93;;;9.95;;
75148;SDS011;63724;47.470;19.166;2023-05-07T05:47:27;14.52;;;10.90;;
75148;SDS011;63724;47.470;19.166;2023-05-07T05:50:30;14.82;;;11.02;;
75148;SDS011;63724;47.470;19.166;2023-05-07T05:53:33;20.67;;;14.23;;
75148;SDS011;63724;47.470;19.166;2023-05-07T05:56:37;17.53;;;12.47;;
75148;SDS011;63724;47.470;19.166;2023-05-07T05:59:39;16.05;;;12.30;;
75148;SDS011;63724;47.470;19.166;2023-05-07T06:02:42;14.07;;;11.32;;
75148;SDS011;63724;47.470;19.166;2023-05-07T06:05:46;14.45;;;10.93;;
75148;SDS011;63724;47.470;19.166;2023-05-07T06:08:49;13.85;;;10.02;;
75148;SDS011;63724;47.470;19.166;2023-05-07T06:11:56;15.17;;;9.73;;
75148;SDS011;63724;47.470;19.166;2023-05-07T06:15:03;13.25;;;9.18;;
75148;SDS011;63724;47.470;19.166;2023-05-07T06:18:06;11.52;;;8.25;;
75148;SDS011;63724;47.470;19.166;2023-05-07T06:21:09;11.30;;;8.07;;
75148;SDS011;63724;47.470;19.166;2023-05-07T06:24:12;11.68;;;7.20;;
75148;SDS011;63724;47.470;19.166;2023-05-07T06:27:15;7.47;;;6.60;;
75148;SDS011;63724;47.470;19.166;2023-05-07T06:30:19;9.38;;;6.00;;
75148;SDS011;63724;47.470;19.166;2023-05-07T06:33:21;8.32;;;6.20;;
75148;SDS011;63724;47.470;19.166;2023-05-07T06:36:24;6.80;;;5.30;;
75148;SDS011;63724;47.470;19.166;2023-05-07T06:39:29;6.82;;;5.65;;
75148;SDS011;63724;47.470;19.166;2023-05-07T06:42:31;5.30;;;4.60;;
75148;SDS011;63724;47.470;19.166;2023-05-07T06:45:51;7.65;;;5.25;;
75148;SDS011;63724;47.470;19.166;2023-05-07T06:48:53;6.22;;;5.07;;
75148;SDS011;63724;47.470;19.166;2023-05-07T06:51:56;5.97;;;4.90;;
75148;SDS011;63724;47.470;19.166;2023-05-07T06:54:59;4.50;;;3.53;;
75148;SDS011;63724;47.470;19.166;2023-05-07T06:58:01;5.53;;;3.97;;
75148;SDS011;63724;47.470;19.166;2023-05-07T07:01:04;4.43;;;3.85;;
75148;SDS011;63724;47.470;19.166;2023-05-07T07:04:08;6.40;;;5.10;;
75148;SDS011;63724;47.470;19.166;2023-05-07T07:07:11;5.93;;;4.20;;
75148;SDS011;63724;47.470;19.166;2023-05-07T07:10:15;5.25;;;4.47;;
75148;SDS011;63724;47.470;19.166;2023-05-07T07:13:19;5.20;;;4.70;;
75148;SDS011;63724;47.470;19.166;2023-05-07T07:16:22;6.78;;;4.32;;
75148;SDS011;63724;47.470;19.166;2023-05-07T07:19:25;5.38;;;4.85;;
75148;SDS011;63724;47.470;19.166;2023-05-07T07:22:30;7.05;;;4.70;;
75148;SDS011;63724;47.470;19.166;2023-05-07T07:25:33;7.72;;;4.28;;
75148;SDS011;63724;47.470;19.166;2023-05-07T07:28:41;3.87;;;3.00;;
75148;SDS011;63724;47.470;19.166;2023-05-07T07:31:47;2.65;;;2.35;;
75148;SDS011;63724;47.470;19.166;2023-05-07T07:34:52;3.72;;;2.42;;
75148;SDS011;63724;47.470;19.166;2023-05-07T07:37:55;2.75;;;2.42;;
75148;SDS011;63724;47.470;19.166;2023-05-07T07:40:57;2.95;;;2.58;;
75148;SDS011;63724;47.470;19.166;2023-05-07T07:44:00;2.50;;;2.20;;
75148;SDS011;63724;47.470;19.166;2023-05-07T07:47:03;4.72;;;1.80;;
75148;SDS011;63724;47.470;19.166;2023-05-07T07:50:06;2.85;;;1.77;;
75148;SDS011;63724;47.470;19.166;2023-05-07T07:53:10;2.70;;;2.03;;
75148;SDS011;63724;47.470;19.166;2023-05-07T07:56:12;3.08;;;2.78;;
75148;SDS011;63724;47.470;19.166;2023-05-07T07:59:15;3.17;;;2.77;;
75148;SDS011;63724;47.470;19.166;2023-05-07T08:02:22;3.17;;;2.30;;
75148;SDS011;63724;47.470;19.166;2023-05-07T08:05:25;2.70;;;2.13;;
75148;SDS011;63724;47.470;19.166;2023-05-07T08:08:28;3.45;;;2.03;;
75148;SDS011;63724;47.470;19.166;2023-05-07T08:11:31;2.55;;;2.03;;
75148;SDS011;63724;47.470;19.166;2023-05-07T08:14:34;3.53;;;2.03;;
75148;SDS011;63724;47.470;19.166;2023-05-07T08:17:36;2.70;;;2.13;;
75148;SDS011;63724;47.470;19.166;2023-05-07T08:20:39;5.30;;;1.98;;
75148;SDS011;63724;47.470;19.166;2023-05-07T08:23:45;2.10;;;1.70;;
75148;SDS011;63724;47.470;19.166;2023-05-07T08:26:47;5.22;;;1.65;;
75148;SDS011;63724;47.470;19.166;2023-05-07T08:29:50;2.27;;;1.70;;
75148;SDS011;63724;47.470;19.166;2023-05-07T08:32:54;2.10;;;1.77;;
75148;SDS011;63724;47.470;19.166;2023-05-07T08:35:57;1.98;;;1.77;;
75148;SDS011;63724;47.470;19.166;2023-05-07T08:39:00;2.35;;;1.90;;
75148;SDS011;63724;47.470;19.166;2023-05-07T08:42:03;3.72;;;2.13;;
75148;SDS011;63724;47.470;19.166;2023-05-07T08:45:09;3.10;;;2.33;;
75148;SDS011;63724;47.470;19.166;2023-05-07T08:48:16;3.25;;;2.50;;
75148;SDS011;63724;47.470;19.166;2023-05-07T08:51:28;4.05;;;2.03;;
75148;SDS011;63724;47.470;19.166;2023-05-07T08:54:31;2.55;;;2.10;;
75148;SDS011;63724;47.470;19.166;2023-05-07T08:57:35;2.53;;;2.13;;
75148;SDS011;63724;47.470;19.166;2023-05-07T09:00:40;2.20;;;2.00;;
75148;SDS011;63724;47.470;19.166;2023-05-07T09:03:45;3.47;;;1.85;;
75148;SDS011;63724;47.470;19.166;2023-05-07T09:06:49;2.53;;;1.80;;
75148;SDS011;63724;47.470;19.166;2023-05-07T09:09:54;3.90;;;2.80;;
75148;SDS011;63724;47.470;19.166;2023-05-07T09:12:57;3.90;;;2.60;;
75148;SDS011;63724;47.470;19.166;2023-05-07T09:16:09;6.00;;;2.40;;
75148;SDS011;63724;47.470;19.166;2023-05-07T09:19:13;3.65;;;2.67;;
75148;SDS011;63724;47.470;19.166;2023-05-07T09:22:19;3.17;;;2.60;;
75148;SDS011;63724;47.470;19.166;2023-05-07T09:25:34;2.97;;;2.20;;
75148;SDS011;63724;47.470;19.166;2023-05-07T09:28:44;5.28;;;2.53;;
75148;SDS011;63724;47.470;19.166;2023-05-07T09:31:47;5.63;;;2.93;;
75148;SDS011;63724;47.470;19.166;2023-05-07T09:34:52;3.45;;;2.70;;
75148;SDS011;63724;47.470;19.166;2023-05-07T09:37:58;4.18;;;3.30;;
75148;SDS011;63724;47.470;19.166;2023-05-07T09:41:07;4.93;;;3.05;;
75148;SDS011;63724;47.470;19.166;2023-05-07T09:44:31;4.38;;;2.97;;
75148;SDS011;63724;47.470;19.166;2023-05-07T09:47:33;5.43;;;3.43;;
75148;SDS011;63724;47.470;19.166;2023-05-07T09:50:40;5.22;;;3.15;;
75148;SDS011;63724;47.470;19.166;2023-05-07T09:53:50;3.17;;;2.88;;
75148;SDS011;63724;47.470;19.166;2023-05-07T09:56:56;3.65;;;3.15;;
75148;SDS011;63724;47.470;19.166;2023-05-07T10:00:01;5.35;;;2.22;;
75148;SDS011;63724;47.470;19.166;2023-05-07T10:03:21;1.77;;;1.67;;
75148;SDS011;63724;47.470;19.166;2023-05-07T10:06:30;2.80;;;1.50;;
75148;SDS011;63724;47.470;19.166;2023-05-07T10:09:34;2.00;;;1.80;;
75148;SDS011;63724;47.470;19.166;2023-05-07T10:12:43;3.33;;;2.40;;
75148;SDS011;63724;47.470;19.166;2023-05-07T10:15:51;2.13;;;1.75;;
75148;SDS011;63724;47.470;19.166;2023-05-07T10:18:55;2.50;;;1.73;;
75148;SDS011;63724;47.470;19.166;2023-05-07T10:22:00;2.75;;;2.00;;
75148;SDS011;63724;47.470;19.166;2023-05-07T10:25:09;4.70;;;1.92;;
75148;SDS011;63724;47.470;19.166;2023-05-07T10:28:17;2.75;;;1.88;;
75148;SDS011;63724;47.470;19.166;2023-05-07T10:31:25;5.32;;;1.85;;
75148;SDS011;63724;47.470;19.166;2023-05-07T10:34:36;4.00;;;2.83;;
75148;SDS011;63724;47.470;19.166;2023-05-07T10:37:40;4.65;;;3.00;;
75148;SDS011;63724;47.470;19.166;2023-05-07T10:40:43;5.95;;;3.10;;
75148;SDS011;63724;47.470;19.166;2023-05-07T10:43:51;5.10;;;2.70;;
75148;SDS011;63724;47.470;19.166;2023-05-07T10:47:08;7.78;;;3.20;;
75148;SDS011;63724;47.470;19.166;2023-05-07T10:56:26;3.10;;;2.33;;
75148;SDS011;63724;47.470;19.166;2023-05-07T10:59:37;2.75;;;2.22;;
75148;SDS011;63724;47.470;19.166;2023-05-07T11:06:15;3.83;;;2.77;;
75148;SDS011;63724;47.470;19.166;2023-05-07T11:09:22;4.05;;;2.58;;
75148;SDS011;63724;47.470;19.166;2023-05-07T11:15:47;5.00;;;2.63;;
75148;SDS011;63724;47.470;19.166;2023-05-07T11:19:10;3.53;;;2.40;;
75148;SDS011;63724;47.470;19.166;2023-05-07T11:25:59;5.13;;;2.38;;
75148;SDS011;63724;47.470;19.166;2023-05-07T11:29:03;5.22;;;2.80;;
75148;SDS011;63724;47.470;19.166;2023-05-07T11:32:13;3.17;;;2.10;;
75148;SDS011;63724;47.470;19.166;2023-05-07T11:35:22;3.55;;;2.25;;
75148;SDS011;63724;47.470;19.166;2023-05-07T11:38:27;4.63;;;2.50;;
75148;SDS011;63724;47.470;19.166;2023-05-07T11:41:36;4.32;;;2.58;;
75148;SDS011;63724;47.470;19.166;2023-05-07T11:44:43;5.80;;;2.70;;
75148;SDS011;63724;47.470;19.166;2023-05-07T11:47:45;3.45;;;2.30;;
75148;SDS011;63724;47.470;19.166;2023-05-07T11:50:52;3.00;;;2.70;;
75148;SDS011;63724;47.470;19.166;2023-05-07T11:53:54;3.20;;;2.40;;
75148;SDS011;63724;47.470;19.166;2023-05-07T11:56:57;5.45;;;2.53;;
75148;SDS011;63724;47.470;19.166;2023-05-07T12:00:01;4.13;;;2.42;;
75148;SDS011;63724;47.470;19.166;2023-05-07T12:03:13;3.88;;;2.20;;
75148;SDS011;63724;47.470;19.166;2023-05-07T12:06:16;3.47;;;2.28;;
75148;SDS011;63724;47.470;19.166;2023-05-07T12:09:19;2.93;;;2.10;;
75148;SDS011;63724;47.470;19.166;2023-05-07T12:12:21;5.32;;;2.35;;
75148;SDS011;63724;47.470;19.166;2023-05-07T12:15:23;3.05;;;2.40;;
75148;SDS011;63724;47.470;19.166;2023-05-07T12:18:26;2.88;;;2.05;;
75148;SDS011;63724;47.470;19.166;2023-05-07T12:21:28;2.38;;;1.95;;
75148;SDS011;63724;47.470;19.166;2023-05-07T12:24:44;4.07;;;2.43;;
75148;SDS011;63724;47.470;19.166;2023-05-07T12:27:51;2.50;;;2.30;;
75148;SDS011;63724;47.470;19.166;2023-05-07T12:30:54;3.28;;;1.98;;
75148;SDS011;63724;47.470;19.166;2023-05-07T12:33:56;1.77;;;1.67;;
75148;SDS011;63724;47.470;19.166;2023-05-07T12:37:01;4.68;;;2.00;;
75148;SDS011;63724;47.470;19.166;2023-05-07T12:43:26;2.10;;;1.80;;
75148;SDS011;63724;47.470;19.166;2023-05-07T12:46:30;2.20;;;2.00;;
75148;SDS011;63724;47.470;19.166;2023-05-07T12:49:34;2.05;;;1.90;;
75148;SDS011;63724;47.470;19.166;2023-05-07T12:52:39;3.38;;;2.20;;
75148;SDS011;63724;47.470;19.166;2023-05-07T12:55:43;2.03;;;1.80;;
75148;SDS011;63724;47.470;19.166;2023-05-07T12:58:49;2.40;;;2.20;;
75148;SDS011;63724;47.470;19.166;2023-05-07T13:01:53;3.53;;;2.03;;
75148;SDS011;63724;47.470;19.166;2023-05-07T13:04:55;2.67;;;1.90;;
75148;SDS011;63724;47.470;19.166;2023-05-07T13:07:58;4.20;;;1.95;;
75148;SDS011;63724;47.470;19.166;2023-05-07T13:11:00;2.20;;;2.00;;
75148;SDS011;63724;47.470;19.166;2023-05-07T13:14:06;2.22;;;1.60;;
75148;SDS011;63724;47.470;19.166;2023-05-07T13:17:10;2.70;;;1.70;;
75148;SDS011;63724;47.470;19.166;2023-05-07T13:20:12;2.00;;;1.80;;
75148;SDS011;63724;47.470;19.166;2023-05-07T13:23:14;2.45;;;1.60;;
75148;SDS011;63724;47.470;19.166;2023-05-07T13:26:17;1.87;;;1.77;;
75148;SDS011;63724;47.470;19.166;2023-05-07T13:29:28;2.83;;;2.03;;
75148;SDS011;63724;47.470;19.166;2023-05-07T13:32:31;3.30;;;2.00;;
75148;SDS011;63724;47.470;19.166;2023-05-07T13:35:34;3.63;;;2.13;;
75148;SDS011;63724;47.470;19.166;2023-05-07T13:38:37;3.70;;;1.98;;
75148;SDS011;63724;47.470;19.166;2023-05-07T13:41:39;2.90;;;1.60;;
75148;SDS011;63724;47.470;19.166;2023-05-07T13:44:41;3.05;;;2.22;;
75148;SDS011;63724;47.470;19.166;2023-05-07T13:47:45;4.60;;;1.92;;
75148;SDS011;63724;47.470;19.166;2023-05-07T13:50:48;1.77;;;1.67;;
75148;SDS011;63724;47.470;19.166;2023-05-07T13:53:51;1.73;;;1.58;;
75148;SDS011;63724;47.470;19.166;2023-05-07T13:56:54;2.87;;;2.00;;
75148;SDS011;63724;47.470;19.166;2023-05-07T13:59:56;1.70;;;1.60;;
75148;SDS011;63724;47.470;19.166;2023-05-07T14:02:59;2.60;;;1.73;;
75148;SDS011;63724;47.470;19.166;2023-05-07T14:06:01;3.10;;;1.80;;
75148;SDS011;63724;47.470;19.166;2023-05-07T14:09:04;1.92;;;1.50;;
75148;SDS011;63724;47.470;19.166;2023-05-07T14:12:06;2.00;;;1.70;;
75148;SDS011;63724;47.470;19.166;2023-05-07T14:15:09;5.05;;;2.35;;
75148;SDS011;63724;47.470;19.166;2023-05-07T14:18:15;2.30;;;2.10;;
75148;SDS011;63724;47.470;19.166;2023-05-07T14:21:17;2.95;;;2.20;;
75148;SDS011;63724;47.470;19.166;2023-05-07T14:24:20;2.20;;;2.00;;
75148;SDS011;63724;47.470;19.166;2023-05-07T14:27:38;2.77;;;2.10;;
75148;SDS011;63724;47.470;19.166;2023-05-07T14:30:41;8.18;;;2.42;;
75148;SDS011;63724;47.470;19.166;2023-05-07T14:33:43;3.22;;;2.25;;
75148;SDS011;63724;47.470;19.166;2023-05-07T14:36:45;4.78;;;2.05;;
75148;SDS011;63724;47.470;19.166;2023-05-07T14:39:48;3.67;;;1.90;;
75148;SDS011;63724;47.470;19.166;2023-05-07T14:42:50;4.43;;;2.00;;
75148;SDS011;63724;47.470;19.166;2023-05-07T14:45:53;1.80;;;1.63;;
75148;SDS011;63724;47.470;19.166;2023-05-07T14:48:56;2.45;;;1.80;;
75148;SDS011;63724;47.470;19.166;2023-05-07T14:51:59;2.42;;;1.70;;
75148;SDS011;63724;47.470;19.166;2023-05-07T14:55:02;1.83;;;1.60;;
75148;SDS011;63724;47.470;19.166;2023-05-07T14:58:04;1.67;;;1.57;;
75148;SDS011;63724;47.470;19.166;2023-05-07T15:01:07;2.72;;;1.58;;
75148;SDS011;63724;47.470;19.166;2023-05-07T15:04:09;2.65;;;2.25;;
75148;SDS011;63724;47.470;19.166;2023-05-07T15:07:12;2.63;;;2.05;;
75148;SDS011;63724;47.470;19.166;2023-05-07T15:10:18;4.95;;;2.30;;
75148;SDS011;63724;47.470;19.166;2023-05-07T15:13:21;3.03;;;1.80;;
75148;SDS011;63724;47.470;19.166;2023-05-07T15:16:23;5.10;;;2.20;;
75148;SDS011;63724;47.470;19.166;2023-05-07T15:19:25;6.35;;;2.20;;
75148;SDS011;63724;47.470;19.166;2023-05-07T15:22:30;2.90;;;2.20;;
75148;SDS011;63724;47.470;19.166;2023-05-07T15:25:33;2.58;;;2.05;;
75148;SDS011;63724;47.470;19.166;2023-05-07T15:28:35;2.80;;;2.50;;
75148;SDS011;63724;47.470;19.166;2023-05-07T15:31:38;4.28;;;2.85;;
75148;SDS011;63724;47.470;19.166;2023-05-07T15:34:41;4.45;;;2.60;;
75148;SDS011;63724;47.470;19.166;2023-05-07T15:37:43;6.78;;;3.13;;
75148;SDS011;63724;47.470;19.166;2023-05-07T15:40:50;4.28;;;2.63;;
75148;SDS011;63724;47.470;19.166;2023-05-07T15:43:52;3.10;;;2.47;;
75148;SDS011;63724;47.470;19.166;2023-05-07T15:46:54;5.05;;;2.80;;
75148;SDS011;63724;47.470;19.166;2023-05-07T15:49:57;3.10;;;2.60;;
75148;SDS011;63724;47.470;19.166;2023-05-07T15:52:59;3.75;;;2.90;;
75148;SDS011;63724;47.470;19.166;2023-05-07T15:56:02;4.40;;;2.72;;
75148;SDS011;63724;47.470;19.166;2023-05-07T15:59:04;3.33;;;2.83;;
75148;SDS011;63724;47.470;19.166;2023-05-07T16:02:07;4.93;;;2.90;;
75148;SDS011;63724;47.470;19.166;2023-05-07T16:05:10;4.22;;;2.60;;
75148;SDS011;63724;47.470;19.166;2023-05-07T16:08:14;3.38;;;2.28;;
75148;SDS011;63724;47.470;19.166;2023-05-07T16:11:16;3.17;;;2.10;;
75148;SDS011;63724;47.470;19.166;2023-05-07T16:14:19;3.77;;;2.40;;
75148;SDS011;63724;47.470;19.166;2023-05-07T16:17:21;2.30;;;1.83;;
75148;SDS011;63724;47.470;19.166;2023-05-07T16:20:26;2.70;;;2.05;;
75148;SDS011;63724;47.470;19.166;2023-05-07T16:23:30;4.47;;;2.00;;
75148;SDS011;63724;47.470;19.166;2023-05-07T16:26:33;3.95;;;1.75;;
75148;SDS011;63724;47.470;19.166;2023-05-07T16:29:35;1.90;;;1.50;;
75148;SDS011;63724;47.470;19.166;2023-05-07T16:32:38;3.42;;;1.70;;
75148;SDS011;63724;47.470;19.166;2023-05-07T16:35:40;4.45;;;1.45;;
75148;SDS011;63724;47.470;19.166;2023-05-07T16:38:42;3.22;;;1.70;;
75148;SDS011;63724;47.470;19.166;2023-05-07T16:41:45;2.92;;;1.80;;
75148;SDS011;63724;47.470;19.166;2023-05-07T16:44:51;2.00;;;1.60;;
75148;SDS011;63724;47.470;19.166;2023-05-07T16:47:53;3.50;;;1.48;;
75148;SDS011;63724;47.470;19.166;2023-05-07T16:50:59;2.58;;;1.63;;
75148;SDS011;63724;47.470;19.166;2023-05-07T16:54:02;2.50;;;1.20;;
75148;SDS011;63724;47.470;19.166;2023-05-07T16:57:04;2.20;;;1.75;;
75148;SDS011;63724;47.470;19.166;2023-05-07T17:00:06;1.90;;;1.30;;
75148;SDS011;63724;47.470;19.166;2023-05-07T17:03:10;2.20;;;1.30;;
75148;SDS011;63724;47.470;19.166;2023-05-07T17:06:13;1.52;;;1.23;;
75148;SDS011;63724;47.470;19.166;2023-05-07T17:09:16;2.53;;;1.67;;
75148;SDS011;63724;47.470;19.166;2023-05-07T17:12:18;4.03;;;1.50;;
75148;SDS011;63724;47.470;19.166;2023-05-07T17:15:20;1.30;;;1.20;;
75148;SDS011;63724;47.470;19.166;2023-05-07T17:18:23;1.75;;;1.50;;
75148;SDS011;63724;47.470;19.166;2023-05-07T17:21:25;2.33;;;1.25;;
75148;SDS011;63724;47.470;19.166;2023-05-07T17:24:28;2.38;;;1.20;;
75148;SDS011;63724;47.470;19.166;2023-05-07T17:27:31;2.28;;;1.33;;
75148;SDS011;63724;47.470;19.166;2023-05-07T17:30:34;2.90;;;1.20;;
75148;SDS011;63724;47.470;19.166;2023-05-07T17:33:37;2.28;;;1.38;;
75148;SDS011;63724;47.470;19.166;2023-05-07T17:36:39;1.90;;;1.40;;
75148;SDS011;63724;47.470;19.166;2023-05-07T17:39:41;3.38;;;1.50;;
75148;SDS011;63724;47.470;19.166;2023-05-07T17:42:44;1.73;;;1.40;;
75148;SDS011;63724;47.470;19.166;2023-05-07T17:45:46;3.07;;;1.37;;
75148;SDS011;63724;47.470;19.166;2023-05-07T17:48:49;3.85;;;1.55;;
75148;SDS011;63724;47.470;19.166;2023-05-07T17:51:52;3.25;;;1.58;;
75148;SDS011;63724;47.470;19.166;2023-05-07T17:54:56;1.70;;;1.40;;
75148;SDS011;63724;47.470;19.166;2023-05-07T17:57:59;1.75;;;1.40;;
75148;SDS011;63724;47.470;19.166;2023-05-07T18:01:01;1.33;;;1.00;;
75148;SDS011;63724;47.470;19.166;2023-05-07T18:04:04;1.73;;;1.17;;
75148;SDS011;63724;47.470;19.166;2023-05-07T18:07:06;2.20;;;1.20;;
75148;SDS011;63724;47.470;19.166;2023-05-07T18:10:08;1.30;;;1.13;;
75148;SDS011;63724;47.470;19.166;2023-05-07T18:13:12;2.65;;;1.40;;
75148;SDS011;63724;47.470;19.166;2023-05-07T18:16:14;1.50;;;1.40;;
75148;SDS011;63724;47.470;19.166;2023-05-07T18:19:17;3.67;;;1.30;;
75148;SDS011;63724;47.470;19.166;2023-05-07T18:22:19;4.53;;;1.38;;